createdAt,value
2017-12-01T00:01:40.021Z,11.20
2017-12-01T00:04:50.017Z,11.20
2017-12-01T00:07:59.971Z,10.52
2017-12-01T00:11:09.939Z,10.02
2017-12-01T00:14:19.752Z,9.68
2017-12-01T00:17:29.749Z,12.55
2017-12-01T00:20:39.603Z,10.77
2017-12-01T00:23:49.504Z,9.77
2017-12-01T00:26:59.365Z,9.43
2017-12-01T00:30:09.368Z,11.60
2017-12-01T00:33:19.158Z,9.85
2017-12-01T00:36:29.092Z,9.73
2017-12-01T00:39:39.223Z,7.22
2017-12-01T00:42:49.087Z,11.38
2017-12-01T00:45:59.280Z,10.50
2017-12-01T00:49:09.820Z,11.55
2017-12-01T00:52:20.136Z,10.88
2017-12-01T00:55:29.996Z,10.65
2017-12-01T00:58:39.561Z,8.93
2017-12-01T01:01:49.598Z,8.05
2017-12-01T01:04:59.570Z,8.48
2017-12-01T01:08:10.250Z,8.68
2017-12-01T01:11:20.559Z,9.80
2017-12-01T01:14:30.611Z,8.05
2017-12-01T01:17:40.174Z,9.02
2017-12-01T01:20:50.642Z,7.40
2017-12-01T01:24:01.046Z,8.35
2017-12-01T01:27:12.148Z,10.07
2017-12-01T01:30:22.751Z,8.38
2017-12-01T01:33:32.519Z,9.02
2017-12-01T01:36:42.295Z,9.32
2017-12-01T01:39:52.047Z,8.80
2017-12-01T01:43:02.170Z,7.65
2017-12-01T01:46:12.289Z,9.07
2017-12-01T01:49:22.395Z,8.85
2017-12-01T01:52:31.805Z,7.90
2017-12-01T01:55:41.565Z,8.88
2017-12-01T01:58:52.110Z,8.15
2017-12-01T02:02:02.726Z,9.40
2017-12-01T02:05:12.673Z,9.70
2017-12-01T02:08:22.504Z,9.30
2017-12-01T02:11:33.251Z,9.27
2017-12-01T02:14:43.345Z,8.70
2017-12-01T02:17:53.086Z,10.05
2017-12-01T02:21:03.039Z,7.37
2017-12-01T02:24:12.747Z,8.32
2017-12-01T02:27:22.390Z,8.95
2017-12-01T02:30:32.387Z,9.50
2017-12-01T02:33:42.441Z,9.68
2017-12-01T02:36:52.156Z,8.38
2017-12-01T02:40:01.635Z,7.32
2017-12-01T02:43:11.434Z,9.15
2017-12-01T02:46:21.222Z,10.57
2017-12-01T02:49:32.537Z,8.13
2017-12-01T02:52:42.024Z,8.50
2017-12-01T02:55:51.690Z,10.32
2017-12-01T02:59:01.502Z,7.72
2017-12-01T03:02:11.302Z,9.27
2017-12-01T03:05:20.872Z,9.18
2017-12-01T03:08:30.712Z,9.77
2017-12-01T03:11:40.602Z,10.27
2017-12-01T03:14:50.222Z,8.98
2017-12-01T03:18:00.420Z,10.10
2017-12-01T03:21:10.297Z,12.40
2017-12-01T03:24:20.221Z,10.30
2017-12-01T03:27:30.083Z,8.50
2017-12-01T03:30:39.950Z,8.20
2017-12-01T03:33:49.955Z,9.85
2017-12-01T03:36:59.759Z,9.90
2017-12-01T03:40:10.415Z,9.77
2017-12-01T03:43:20.656Z,10.48
2017-12-01T03:46:31.298Z,10.23
2017-12-01T03:49:41.536Z,11.27
2017-12-01T03:52:51.252Z,8.20
2017-12-01T03:56:01.126Z,9.02
2017-12-01T03:59:10.910Z,8.52
2017-12-01T04:02:20.863Z,9.90
2017-12-01T04:05:31.895Z,8.13
2017-12-01T04:08:41.355Z,10.80
2017-12-01T04:11:51.366Z,9.55
2017-12-01T04:15:01.041Z,10.52
2017-12-01T04:18:10.891Z,10.85
2017-12-01T04:21:20.216Z,10.57
2017-12-01T04:24:30.244Z,8.25
2017-12-01T04:27:41.209Z,10.20
2017-12-01T04:30:51.125Z,13.50
2017-12-01T04:34:01.339Z,8.35
2017-12-01T04:37:11.071Z,11.45
2017-12-01T04:40:21.652Z,10.57
2017-12-01T04:43:31.362Z,11.27
2017-12-01T04:46:41.553Z,12.05
2017-12-01T04:49:51.219Z,10.85
2017-12-01T04:53:01.240Z,12.10
2017-12-01T04:56:10.882Z,9.98
2017-12-01T04:59:20.959Z,12.55
2017-12-01T05:02:30.589Z,11.27
2017-12-01T05:05:40.384Z,9.65
2017-12-01T05:08:50.242Z,9.50
2017-12-01T05:11:59.715Z,12.23
2017-12-01T05:15:09.528Z,10.93
2017-12-01T05:18:19.359Z,12.18
2017-12-01T05:21:28.989Z,9.93
2017-12-01T05:24:38.966Z,17.42
2017-12-01T05:27:49.536Z,14.43
2017-12-01T05:30:59.419Z,11.60
2017-12-01T05:34:09.586Z,11.85
2017-12-01T05:37:19.391Z,12.63
2017-12-01T05:40:29.526Z,11.75
2017-12-01T05:43:39.399Z,13.30
2017-12-01T05:46:50.902Z,13.18
2017-12-01T05:50:00.365Z,14.38
2017-12-01T05:53:10.484Z,14.60
2017-12-01T05:56:21.051Z,14.52
2017-12-01T05:59:31.380Z,12.77
2017-12-01T06:02:41.660Z,13.13
2017-12-01T06:05:51.110Z,11.75
2017-12-01T06:09:01.090Z,14.48
2017-12-01T06:12:11.015Z,14.23
2017-12-01T06:15:21.009Z,11.65
2017-12-01T06:18:30.774Z,12.15
2017-12-01T06:21:41.098Z,11.35
2017-12-01T06:24:51.627Z,12.13
2017-12-01T06:28:01.731Z,9.75
2017-12-01T06:31:11.831Z,10.10
2017-12-01T06:34:21.601Z,9.07
2017-12-01T06:37:31.107Z,11.43
2017-12-01T06:40:40.708Z,11.23
2017-12-01T06:43:50.741Z,10.80
2017-12-01T06:47:00.778Z,11.93
2017-12-01T06:50:11.093Z,10.40
2017-12-01T06:53:21.106Z,11.05
2017-12-01T06:56:31.080Z,11.52
2017-12-01T06:59:41.219Z,13.07
2017-12-01T07:02:50.987Z,12.27
2017-12-01T07:06:02.328Z,11.70
2017-12-01T07:09:12.579Z,11.70
2017-12-01T07:12:22.619Z,9.27
2017-12-01T07:15:32.835Z,11.90
2017-12-01T07:18:43.782Z,15.70
2017-12-01T07:21:53.716Z,15.90
2017-12-01T07:25:04.129Z,14.38
2017-12-01T07:28:14.821Z,11.40
2017-12-01T07:31:24.610Z,12.85
2017-12-01T07:34:35.265Z,11.88
2017-12-01T07:37:46.148Z,13.62
2017-12-01T07:40:56.049Z,13.00
2017-12-01T07:44:06.253Z,13.88
2017-12-01T07:47:16.739Z,15.35
2017-12-01T07:50:26.690Z,15.15
2017-12-01T07:53:36.554Z,14.77
2017-12-01T07:56:46.289Z,14.40
2017-12-01T07:59:56.413Z,12.85
2017-12-01T08:03:06.453Z,15.90
2017-12-01T08:06:16.348Z,11.25
2017-12-01T08:09:26.463Z,11.70
2017-12-01T08:12:36.581Z,12.85
2017-12-01T08:19:42.802Z,20.17
2017-12-01T08:22:53.015Z,23.60
2017-12-01T08:26:03.270Z,25.83
2017-12-01T08:29:13.065Z,19.33
2017-12-01T08:32:23.023Z,22.98
2017-12-01T08:35:33.015Z,33.13
2017-12-01T08:38:43.195Z,17.85
2017-12-01T08:41:53.123Z,18.02
2017-12-01T08:45:03.056Z,23.17
2017-12-01T08:48:13.134Z,20.65
2017-12-01T08:51:23.094Z,22.67
2017-12-01T08:54:33.192Z,25.37
2017-12-01T08:57:43.999Z,25.73
2017-12-01T09:00:53.984Z,24.60
2017-12-01T09:04:03.438Z,15.68
2017-12-01T09:07:13.581Z,13.55
2017-12-01T09:10:23.352Z,15.63
2017-12-01T09:13:33.579Z,24.77
2017-12-01T09:16:43.612Z,18.92
2017-12-01T09:19:53.212Z,18.15
2017-12-01T09:23:03.134Z,19.67
2017-12-01T09:26:12.653Z,11.30
2017-12-01T09:29:22.744Z,12.25
2017-12-01T09:32:32.616Z,13.05
2017-12-01T09:35:43.357Z,15.13
2017-12-01T09:38:53.026Z,19.12
2017-12-01T09:42:02.197Z,16.87
2017-12-01T09:45:12.217Z,14.57
2017-12-01T09:48:22.210Z,17.30
2017-12-01T09:51:32.259Z,16.73
2017-12-01T09:54:42.200Z,14.57
2017-12-01T09:57:52.536Z,14.87
2017-12-01T10:01:02.835Z,16.05
2017-12-01T10:04:13.495Z,18.65
2017-12-01T10:07:24.077Z,16.70
2017-12-01T10:10:34.190Z,15.85
2017-12-01T10:13:44.184Z,16.80
2017-12-01T10:16:54.059Z,15.88
2017-12-01T10:20:03.907Z,13.40
2017-12-01T10:23:13.785Z,15.30
2017-12-01T10:26:23.538Z,12.50
2017-12-01T10:29:34.112Z,16.45
2017-12-01T10:32:44.365Z,10.35
2017-12-01T10:35:54.210Z,12.32
2017-12-01T10:39:04.366Z,10.32
2017-12-01T10:42:14.781Z,16.02
2017-12-01T10:45:25.351Z,12.70
2017-12-01T10:48:35.444Z,15.45
2017-12-01T10:51:45.454Z,11.77
2017-12-01T10:54:55.303Z,12.75
2017-12-01T10:58:05.476Z,8.82
2017-12-01T11:01:16.465Z,15.25
2017-12-01T11:04:26.623Z,9.85
2017-12-01T11:07:36.639Z,16.23
2017-12-01T11:10:47.366Z,10.38
2017-12-01T11:13:57.676Z,11.38
2017-12-01T11:17:07.974Z,14.32
2017-12-01T11:20:18.261Z,8.95
2017-12-01T11:23:29.048Z,15.25
2017-12-01T11:26:39.218Z,12.05
2017-12-01T11:29:49.063Z,10.77
2017-12-01T11:32:59.202Z,13.50
2017-12-01T11:36:09.210Z,14.60
2017-12-01T11:39:19.185Z,10.63
2017-12-01T11:42:29.022Z,13.38
2017-12-01T11:45:39.199Z,12.55
2017-12-01T11:48:50.099Z,12.82
2017-12-01T11:52:00.127Z,13.73
2017-12-01T11:55:09.665Z,13.00
2017-12-01T11:58:19.726Z,15.48
2017-12-01T12:01:29.323Z,12.07
2017-12-01T12:04:39.501Z,10.05
2017-12-01T12:07:50.209Z,12.02
2017-12-01T12:11:00.065Z,12.10
2017-12-01T12:14:11.166Z,13.25
2017-12-01T12:17:21.346Z,11.77
2017-12-01T12:20:30.869Z,13.95
2017-12-01T12:23:40.890Z,16.05
2017-12-01T12:26:50.507Z,12.63
2017-12-01T12:30:00.854Z,15.70
2017-12-01T12:33:11.701Z,20.12
2017-12-01T12:36:21.778Z,14.48
2017-12-01T12:39:31.632Z,19.45
2017-12-01T12:42:41.980Z,15.45
2017-12-01T12:45:52.282Z,17.75
2017-12-01T12:49:01.753Z,14.27
2017-12-01T12:52:11.776Z,10.23
2017-12-01T12:55:22.111Z,15.38
2017-12-01T12:58:32.140Z,14.50
2017-12-01T13:01:42.004Z,18.55
2017-12-01T13:04:51.641Z,15.20
2017-12-01T13:08:01.508Z,19.17
2017-12-01T13:11:12.186Z,13.62
2017-12-01T13:14:22.473Z,11.07
2017-12-01T13:17:32.217Z,15.95
2017-12-01T13:20:42.655Z,18.95
2017-12-01T13:23:52.839Z,14.93
2017-12-01T13:27:03.511Z,18.90
2017-12-01T13:30:13.723Z,16.50
2017-12-01T13:33:23.290Z,20.23
2017-12-01T13:36:33.506Z,14.68
2017-12-01T13:39:43.341Z,13.90
2017-12-01T13:42:53.604Z,18.90
2017-12-01T13:46:03.669Z,19.85
2017-12-01T13:49:13.426Z,16.25
2017-12-01T13:52:23.608Z,21.15
2017-12-01T13:55:34.053Z,15.35
2017-12-01T13:58:44.459Z,16.42
2017-12-01T14:01:53.978Z,16.08
2017-12-01T14:05:03.866Z,17.77
2017-12-01T14:08:13.790Z,13.50
2017-12-01T14:11:23.651Z,11.07
2017-12-01T14:14:34.512Z,8.13
2017-12-01T14:17:44.326Z,8.05
2017-12-01T14:20:54.308Z,9.55
2017-12-01T14:24:04.156Z,10.32
2017-12-01T14:27:14.323Z,13.18
2017-12-01T14:30:24.705Z,9.55
2017-12-01T14:33:34.649Z,10.60
2017-12-01T14:36:44.940Z,11.15
2017-12-01T14:39:56.491Z,10.00
2017-12-01T14:43:07.184Z,11.40
2017-12-01T14:46:17.114Z,11.65
2017-12-01T14:49:27.890Z,14.10
2017-12-01T14:52:38.017Z,12.20
2017-12-01T14:55:48.816Z,9.23
2017-12-01T14:58:58.847Z,10.23
2017-12-01T15:02:08.722Z,10.57
2017-12-01T15:05:18.865Z,11.88
2017-12-01T15:08:28.863Z,8.70
2017-12-01T15:11:38.740Z,9.60
2017-12-01T15:14:48.702Z,17.55
2017-12-01T15:17:58.453Z,16.15
2017-12-01T15:21:08.322Z,20.58
2017-12-01T15:24:18.604Z,16.98
2017-12-01T15:27:29.117Z,18.62
2017-12-01T15:30:39.536Z,13.90
2017-12-01T15:33:49.687Z,14.07
2017-12-01T15:37:00.584Z,12.73
2017-12-01T15:40:10.905Z,15.23
2017-12-01T15:43:20.517Z,12.93
2017-12-01T15:46:30.161Z,14.07
2017-12-01T15:49:41.182Z,12.23
2017-12-01T15:52:51.583Z,11.35
2017-12-01T15:56:01.791Z,13.10
2017-12-01T15:59:11.434Z,11.48
2017-12-01T16:02:21.239Z,14.68
2017-12-01T16:05:30.648Z,12.77
2017-12-01T16:08:41.038Z,18.12
2017-12-01T16:11:51.036Z,21.85
2017-12-01T16:15:00.257Z,32.65
2017-12-01T16:18:09.765Z,24.90
2017-12-01T16:21:19.305Z,16.58
2017-12-01T16:24:30.377Z,25.23
2017-12-01T16:27:39.827Z,31.83
2017-12-01T16:30:51.076Z,27.23
2017-12-01T16:34:01.385Z,21.23
2017-12-01T16:37:12.841Z,22.02
2017-12-01T16:40:23.061Z,12.45
2017-12-01T16:43:32.611Z,11.57
2017-12-01T16:46:42.932Z,17.05
2017-12-01T16:49:53.244Z,12.85
2017-12-01T16:53:03.453Z,13.40
2017-12-01T16:56:14.139Z,11.93
2017-12-01T16:59:23.946Z,17.17
2017-12-01T17:02:34.145Z,12.05
2017-12-01T17:05:44.969Z,11.18
2017-12-01T17:08:55.089Z,18.20
2017-12-01T17:12:05.606Z,15.82
2017-12-01T17:15:15.700Z,17.30
2017-12-01T17:18:25.536Z,15.30
2017-12-01T17:21:35.818Z,17.90
2017-12-01T17:24:46.142Z,15.13
2017-12-01T17:27:56.090Z,15.27
2017-12-01T17:31:05.927Z,15.02
2017-12-01T17:34:16.439Z,17.50
2017-12-01T17:37:26.435Z,15.60
2017-12-01T17:40:36.444Z,17.62
2017-12-01T17:43:46.766Z,16.48
2017-12-01T17:46:56.534Z,18.12
2017-12-01T17:50:06.719Z,17.30
2017-12-01T17:53:16.886Z,16.30
2017-12-01T17:56:26.707Z,14.90
2017-12-01T17:59:36.317Z,14.77
2017-12-01T18:02:46.157Z,14.75
2017-12-01T18:05:56.789Z,16.08
2017-12-01T18:09:06.936Z,17.23
2017-12-01T18:12:16.760Z,19.48
2017-12-01T18:15:27.047Z,17.58
2017-12-01T18:18:36.945Z,21.30
2017-12-01T18:21:47.979Z,17.00
2017-12-01T18:24:57.755Z,18.10
2017-12-01T18:28:08.524Z,22.58
2017-12-01T18:31:18.957Z,21.35
2017-12-01T18:34:29.143Z,18.98
2017-12-01T18:37:39.077Z,17.52
2017-12-01T18:40:48.643Z,18.58
2017-12-01T18:43:59.310Z,18.40
2017-12-01T18:47:08.669Z,18.52
2017-12-01T18:50:18.942Z,14.45
2017-12-01T18:53:29.708Z,23.27
2017-12-01T18:56:39.832Z,18.17
2017-12-01T18:59:49.935Z,18.70
2017-12-01T19:02:59.563Z,23.15
2017-12-01T19:06:09.675Z,16.52
2017-12-01T19:09:19.756Z,18.35
2017-12-01T19:12:29.624Z,18.73
2017-12-01T19:15:39.133Z,20.12
2017-12-01T19:18:49.384Z,20.62
2017-12-01T19:21:59.010Z,17.73
2017-12-01T19:25:08.863Z,18.40
2017-12-01T19:28:19.172Z,19.62
2017-12-01T19:31:28.903Z,17.62
2017-12-01T19:34:39.048Z,20.40
2017-12-01T19:37:48.480Z,16.85
2017-12-01T19:40:58.929Z,18.55
2017-12-01T19:44:08.724Z,15.02
2017-12-01T19:47:18.906Z,12.20
2017-12-01T19:50:29.079Z,14.15
2017-12-01T19:53:38.921Z,12.35
2017-12-01T19:56:48.919Z,14.13
2017-12-01T19:59:58.705Z,11.82
2017-12-01T20:03:09.147Z,10.50
2017-12-01T20:06:19.346Z,8.30
2017-12-01T20:09:30.342Z,11.88
2017-12-01T20:12:40.100Z,11.60
2017-12-01T20:15:50.050Z,15.90
2017-12-01T20:19:00.120Z,9.00
2017-12-01T20:22:09.925Z,16.30
2017-12-01T20:25:20.123Z,19.55
2017-12-01T20:28:30.723Z,21.65
2017-12-01T20:31:41.050Z,19.95
2017-12-01T20:34:51.071Z,21.00
2017-12-01T20:38:01.777Z,14.43
2017-12-01T20:41:12.380Z,21.40
2017-12-01T20:44:26.875Z,16.17
2017-12-01T20:47:36.429Z,14.32
2017-12-01T20:50:47.655Z,8.75
2017-12-01T20:53:57.979Z,16.45
2017-12-01T20:57:08.074Z,15.13
2017-12-01T21:00:17.989Z,19.40
2017-12-01T21:03:29.050Z,15.73
2017-12-01T21:06:38.917Z,16.48
2017-12-01T21:09:49.981Z,12.90
2017-12-01T21:13:00.174Z,8.85
2017-12-01T21:16:10.359Z,9.65
2017-12-01T21:19:20.323Z,12.10
2017-12-01T21:22:30.344Z,11.23
2017-12-01T21:25:40.182Z,11.80
2017-12-01T21:28:50.309Z,10.43
2017-12-01T21:32:00.580Z,13.30
2017-12-01T21:35:10.211Z,14.63
2017-12-01T21:38:20.758Z,17.37
2017-12-01T21:41:31.107Z,14.10
2017-12-01T21:44:41.422Z,10.35
2017-12-01T21:47:51.722Z,11.40
2017-12-01T21:51:01.678Z,15.85
2017-12-01T21:54:15.662Z,7.80
2017-12-01T21:57:25.881Z,9.27
2017-12-01T22:00:35.878Z,11.73
2017-12-01T22:03:45.765Z,14.95
2017-12-01T22:06:55.461Z,12.23
2017-12-01T22:10:06.104Z,11.10
2017-12-01T22:13:15.799Z,11.27
2017-12-01T22:16:25.669Z,8.07
2017-12-01T22:19:36.149Z,8.02
2017-12-01T22:22:46.226Z,8.52
2017-12-01T22:25:56.723Z,15.13
2017-12-01T22:29:07.473Z,11.77
2017-12-01T22:32:17.619Z,15.38
2017-12-01T22:35:27.560Z,11.63
2017-12-01T22:38:37.454Z,11.30
2017-12-01T22:41:47.946Z,8.98
2017-12-01T22:44:57.829Z,12.50
2017-12-01T22:48:07.915Z,10.63
2017-12-01T22:51:17.975Z,11.50
2017-12-01T22:54:27.800Z,13.23
2017-12-01T22:57:38.772Z,11.95
2017-12-01T23:00:49.124Z,11.73
2017-12-01T23:03:59.191Z,13.07
2017-12-01T23:07:09.148Z,12.90
2017-12-01T23:10:19.275Z,12.30
2017-12-01T23:13:29.584Z,12.48
2017-12-01T23:16:39.664Z,13.80
2017-12-01T23:19:49.973Z,12.43
2017-12-01T23:22:59.952Z,10.25
2017-12-01T23:26:10.103Z,12.30
2017-12-01T23:29:20.495Z,13.40
2017-12-01T23:32:31.401Z,16.17
2017-12-01T23:35:41.655Z,9.73
2017-12-01T23:38:52.231Z,7.50
2017-12-01T23:42:02.350Z,10.23
2017-12-01T23:45:12.193Z,11.02
2017-12-01T23:48:23.337Z,15.45
2017-12-01T23:51:33.920Z,12.13
2017-12-01T23:54:44.095Z,12.07
2017-12-01T23:57:54.098Z,13.02
